sensor_id;sensor_type;location;lat;lon;timestamp;pressure;altitude;pressure_sealevel;temperature;humidity
37170;BME280;23062;13.952;100.608;2023-05-07T00:00:43;1005.35;;;33.82;59.38
37170;BME280;23062;13.952;100.608;2023-05-07T00:05:09;1005.44;;;33.82;59.42
37170;BME280;23062;13.952;100.608;2023-05-07T00:09:34;1005.51;;;33.82;59.23
37170;BME280;23062;13.952;100.608;2023-05-07T00:14:02;1005.58;;;33.86;58.93
37170;BME280;23062;13.952;100.608;2023-05-07T00:18:35;1005.65;;;33.83;58.66
37170;BME280;23062;13.952;100.608;2023-05-07T00:23:01;1005.62;;;33.85;58.17
37170;BME280;23062;13.952;100.608;2023-05-07T00:27:27;1005.77;;;33.83;57.19
37170;BME280;23062;13.952;100.608;2023-05-07T00:32:01;1005.87;;;33.85;56.59
37170;BME280;23062;13.952;100.608;2023-05-07T00:36:28;1005.99;;;33.86;56.38
37170;BME280;23062;13.952;100.608;2023-05-07T00:40:53;1006.06;;;33.85;56.05
37170;BME280;23062;13.952;100.608;2023-05-07T00:45:18;1006.15;;;33.88;55.76
37170;BME280;23062;13.952;100.608;2023-05-07T00:49:47;1006.20;;;33.88;55.48
37170;BME280;23062;13.952;100.608;2023-05-07T00:54:14;1006.22;;;33.90;54.92
37170;BME280;23062;13.952;100.608;2023-05-07T00:58:40;1006.29;;;33.91;54.66
37170;BME280;23062;13.952;100.608;2023-05-07T01:03:06;1006.37;;;33.95;54.31
37170;BME280;23062;13.952;100.608;2023-05-07T01:07:32;1006.43;;;33.91;53.41
37170;BME280;23062;13.952;100.608;2023-05-07T01:11:59;1006.48;;;33.95;53.09
37170;BME280;23062;13.952;100.608;2023-05-07T01:16:26;1006.56;;;33.95;52.91
37170;BME280;23062;13.952;100.608;2023-05-07T01:20:58;1006.59;;;33.96;52.66
37170;BME280;23062;13.952;100.608;2023-05-07T01:25:22;1006.59;;;33.97;52.50
37170;BME280;23062;13.952;100.608;2023-05-07T01:29:53;1006.62;;;34.02;52.21
37170;BME280;23062;13.952;100.608;2023-05-07T01:34:26;1006.60;;;34.01;51.63
37170;BME280;23062;13.952;100.608;2023-05-07T01:39:04;1006.63;;;34.04;51.07
37170;BME280;23062;13.952;100.608;2023-05-07T01:43:34;1006.72;;;34.07;51.39
37170;BME280;23062;13.952;100.608;2023-05-07T01:48:00;1006.73;;;34.10;50.93
37170;BME280;23062;13.952;100.608;2023-05-07T01:52:30;1006.72;;;34.14;50.70
37170;BME280;23062;13.952;100.608;2023-05-07T01:57:06;1006.65;;;34.17;50.07
37170;BME280;23062;13.952;100.608;2023-05-07T02:01:31;1006.65;;;34.19;50.30
37170;BME280;23062;13.952;100.608;2023-05-07T02:06:05;1006.62;;;34.22;50.03
37170;BME280;23062;13.952;100.608;2023-05-07T02:10:37;1006.72;;;34.26;49.95
37170;BME280;23062;13.952;100.608;2023-05-07T02:15:05;1006.65;;;34.31;49.76
37170;BME280;23062;13.952;100.608;2023-05-07T02:19:41;1006.65;;;34.34;49.38
37170;BME280;23062;13.952;100.608;2023-05-07T02:24:06;1006.62;;;34.39;49.36
37170;BME280;23062;13.952;100.608;2023-05-07T02:28:31;1006.55;;;34.40;48.92
37170;BME280;23062;13.952;100.608;2023-05-07T02:33:02;1006.54;;;34.41;48.82
37170;BME280;23062;13.952;100.608;2023-05-07T02:37:29;1006.40;;;34.46;48.83
37170;BME280;23062;13.952;100.608;2023-05-07T02:42:05;1006.37;;;34.50;48.74
37170;BME280;23062;13.952;100.608;2023-05-07T02:46:29;1006.32;;;34.51;48.69
37170;BME280;23062;13.952;100.608;2023-05-07T02:50:56;1006.30;;;34.53;48.50
37170;BME280;23062;13.952;100.608;2023-05-07T02:55:24;1006.24;;;34.54;48.06
37170;BME280;23062;13.952;100.608;2023-05-07T02:59:50;1006.17;;;34.55;48.37
37170;BME280;23062;13.952;100.608;2023-05-07T03:04:21;1006.22;;;34.57;48.14
37170;BME280;23062;13.952;100.608;2023-05-07T03:08:47;1006.19;;;34.60;47.83
37170;BME280;23062;13.952;100.608;2023-05-07T03:13:19;1006.13;;;34.62;47.79
37170;BME280;23062;13.952;100.608;2023-05-07T03:17:45;1006.04;;;34.64;47.65
37170;BME280;23062;13.952;100.608;2023-05-07T03:22:11;1005.98;;;34.67;47.66
37170;BME280;23062;13.952;100.608;2023-05-07T03:26:38;1005.87;;;34.67;47.15
37170;BME280;23062;13.952;100.608;2023-05-07T03:31:08;1005.85;;;34.72;47.32
37170;BME280;23062;13.952;100.608;2023-05-07T03:35:34;1005.73;;;34.73;47.42
37170;BME280;23062;13.952;100.608;2023-05-07T03:40:00;1005.67;;;34.75;47.23
37170;BME280;23062;13.952;100.608;2023-05-07T03:44:26;1005.55;;;34.76;46.79
37170;BME280;23062;13.952;100.608;2023-05-07T03:48:52;1005.51;;;34.78;46.51
37170;BME280;23062;13.952;100.608;2023-05-07T03:53:18;1005.39;;;34.82;46.78
37170;BME280;23062;13.952;100.608;2023-05-07T03:57:48;1005.39;;;34.86;46.72
37170;BME280;23062;13.952;100.608;2023-05-07T04:02:15;1005.32;;;34.87;46.62
37170;BME280;23062;13.952;100.608;2023-05-07T04:06:49;1005.32;;;34.93;46.67
37170;BME280;23062;13.952;100.608;2023-05-07T04:11:15;1005.31;;;35.06;46.95
37170;BME280;23062;13.952;100.608;2023-05-07T04:15:41;1005.26;;;35.11;46.66
37170;BME280;23062;13.952;100.608;2023-05-07T04:20:13;1005.16;;;35.12;46.88
37170;BME280;23062;13.952;100.608;2023-05-07T04:24:39;1005.11;;;35.13;47.23
37170;BME280;23062;13.952;100.608;2023-05-07T04:29:07;1005.03;;;35.16;47.13
37170;BME280;23062;13.952;100.608;2023-05-07T04:33:34;1005.00;;;35.15;46.92
37170;BME280;23062;13.952;100.608;2023-05-07T04:38:00;1004.92;;;35.15;46.78
37170;BME280;23062;13.952;100.608;2023-05-07T04:42:26;1004.84;;;35.17;46.60
37170;BME280;23062;13.952;100.608;2023-05-07T04:46:53;1004.78;;;35.07;46.36
37170;BME280;23062;13.952;100.608;2023-05-07T04:51:20;1004.70;;;35.06;46.51
37170;BME280;23062;13.952;100.608;2023-05-07T04:55:45;1004.68;;;35.07;46.53
37170;BME280;23062;13.952;100.608;2023-05-07T05:00:11;1004.56;;;35.10;46.60
37170;BME280;23062;13.952;100.608;2023-05-07T05:04:41;1004.56;;;35.16;46.32
37170;BME280;23062;13.952;100.608;2023-05-07T05:09:07;1004.41;;;35.15;46.63
37170;BME280;23062;13.952;100.608;2023-05-07T05:13:33;1004.45;;;35.18;46.01
37170;BME280;23062;13.952;100.608;2023-05-07T05:17:59;1004.30;;;35.21;45.40
37170;BME280;23062;13.952;100.608;2023-05-07T05:22:25;1004.25;;;35.21;45.15
37170;BME280;23062;13.952;100.608;2023-05-07T05:26:57;1004.19;;;35.24;45.22
37170;BME280;23062;13.952;100.608;2023-05-07T05:31:25;1004.09;;;35.32;44.75
37170;BME280;23062;13.952;100.608;2023-05-07T05:35:51;1004.04;;;35.36;44.69
37170;BME280;23062;13.952;100.608;2023-05-07T05:40:19;1003.93;;;35.40;44.29
37170;BME280;23062;13.952;100.608;2023-05-07T05:44:45;1003.81;;;35.41;44.30
37170;BME280;23062;13.952;100.608;2023-05-07T05:49:16;1003.64;;;35.46;43.46
37170;BME280;23062;13.952;100.608;2023-05-07T05:53:46;1003.57;;;35.47;43.02
37170;BME280;23062;13.952;100.608;2023-05-07T05:58:08;1003.43;;;35.43;42.63
37170;BME280;23062;13.952;100.608;2023-05-07T06:02:36;1003.24;;;35.45;42.88
37170;BME280;23062;13.952;100.608;2023-05-07T06:07:02;1003.22;;;35.47;43.24
37170;BME280;23062;13.952;100.608;2023-05-07T06:11:28;1003.12;;;35.52;43.23
37170;BME280;23062;13.952;100.608;2023-05-07T06:15:54;1002.95;;;35.54;43.37
37170;BME280;23062;13.952;100.608;2023-05-07T06:20:20;1002.90;;;35.55;43.05
37170;BME280;23062;13.952;100.608;2023-05-07T06:24:50;1002.80;;;35.55;43.25
37170;BME280;23062;13.952;100.608;2023-05-07T06:29:19;1002.79;;;35.55;43.34
37170;BME280;23062;13.952;100.608;2023-05-07T06:33:45;1002.70;;;35.59;43.11
37170;BME280;23062;13.952;100.608;2023-05-07T06:38:18;1002.58;;;35.57;43.21
37170;BME280;23062;13.952;100.608;2023-05-07T06:42:46;1002.56;;;35.61;43.27
37170;BME280;23062;13.952;100.608;2023-05-07T06:47:12;1002.54;;;35.62;43.15
37170;BME280;23062;13.952;100.608;2023-05-07T06:51:42;1002.37;;;35.64;43.28
37170;BME280;23062;13.952;100.608;2023-05-07T06:56:09;1002.35;;;35.65;43.51
37170;BME280;23062;13.952;100.608;2023-05-07T07:00:36;1002.26;;;35.67;43.25
37170;BME280;23062;13.952;100.608;2023-05-07T07:05:09;1002.14;;;35.68;42.92
37170;BME280;23062;13.952;100.608;2023-05-07T07:09:39;1002.05;;;35.73;42.97
37170;BME280;23062;13.952;100.608;2023-05-07T07:14:03;1001.97;;;35.69;43.03
37170;BME280;23062;13.952;100.608;2023-05-07T07:18:29;1001.94;;;35.71;43.05
37170;BME280;23062;13.952;100.608;2023-05-07T07:22:55;1001.87;;;35.78;42.26
37170;BME280;23062;13.952;100.608;2023-05-07T07:27:20;1001.81;;;35.85;42.05
37170;BME280;23062;13.952;100.608;2023-05-07T07:31:49;1001.74;;;35.82;42.27
37170;BME280;23062;13.952;100.608;2023-05-07T07:36:20;1001.64;;;35.84;42.17
37170;BME280;23062;13.952;100.608;2023-05-07T07:40:56;1001.48;;;35.91;41.67
37170;BME280;23062;13.952;100.608;2023-05-07T07:45:32;1001.51;;;35.95;41.86
37170;BME280;23062;13.952;100.608;2023-05-07T07:50:00;1001.45;;;35.95;41.64
37170;BME280;23062;13.952;100.608;2023-05-07T07:54:34;1001.40;;;35.99;41.97
37170;BME280;23062;13.952;100.608;2023-05-07T07:58:59;1001.33;;;36.01;41.58
37170;BME280;23062;13.952;100.608;2023-05-07T08:03:26;1001.33;;;36.03;41.40
37170;BME280;23062;13.952;100.608;2023-05-07T08:07:52;1001.30;;;36.07;41.00
37170;BME280;23062;13.952;100.608;2023-05-07T08:12:18;1001.11;;;36.03;41.34
37170;BME280;23062;13.952;100.608;2023-05-07T08:16:44;1001.05;;;36.05;40.42
37170;BME280;23062;13.952;100.608;2023-05-07T08:21:11;1000.98;;;36.14;40.16
37170;BME280;23062;13.952;100.608;2023-05-07T08:25:39;1000.89;;;36.12;40.60
37170;BME280;23062;13.952;100.608;2023-05-07T08:30:10;1000.83;;;36.16;40.21
37170;BME280;23062;13.952;100.608;2023-05-07T08:34:40;1000.71;;;36.17;40.69
37170;BME280;23062;13.952;100.608;2023-05-07T08:39:19;1000.64;;;36.17;40.23
37170;BME280;23062;13.952;100.608;2023-05-07T08:43:47;1000.56;;;36.15;40.24
37170;BME280;23062;13.952;100.608;2023-05-07T08:48:17;1000.54;;;36.14;40.05
37170;BME280;23062;13.952;100.608;2023-05-07T08:52:51;1000.58;;;36.14;40.44
37170;BME280;23062;13.952;100.608;2023-05-07T08:57:21;1000.52;;;36.13;40.41
37170;BME280;23062;13.952;100.608;2023-05-07T09:01:48;1000.46;;;36.11;40.78
37170;BME280;23062;13.952;100.608;2023-05-07T09:06:18;1000.45;;;36.09;40.71
37170;BME280;23062;13.952;100.608;2023-05-07T09:10:48;1000.45;;;36.09;40.79
37170;BME280;23062;13.952;100.608;2023-05-07T09:15:19;1000.44;;;36.07;40.84
37170;BME280;23062;13.952;100.608;2023-05-07T09:19:46;1000.39;;;36.05;40.88
37170;BME280;23062;13.952;100.608;2023-05-07T09:24:14;1000.34;;;36.07;40.49
37170;BME280;23062;13.952;100.608;2023-05-07T09:28:41;1000.27;;;36.09;40.44
37170;BME280;23062;13.952;100.608;2023-05-07T09:33:08;1000.35;;;36.09;40.34
37170;BME280;23062;13.952;100.608;2023-05-07T09:37:34;1000.34;;;36.06;40.44
37170;BME280;23062;13.952;100.608;2023-05-07T09:42:01;1000.27;;;36.04;40.59
37170;BME280;23062;13.952;100.608;2023-05-07T09:46:36;1000.14;;;36.02;40.69
37170;BME280;23062;13.952;100.608;2023-05-07T09:51:05;1000.19;;;36.01;41.08
37170;BME280;23062;13.952;100.608;2023-05-07T09:55:31;1000.22;;;36.01;40.92
37170;BME280;23062;13.952;100.608;2023-05-07T10:00:00;1000.24;;;36.03;41.26
37170;BME280;23062;13.952;100.608;2023-05-07T10:04:34;1000.18;;;36.02;41.57
37170;BME280;23062;13.952;100.608;2023-05-07T10:09:03;1000.25;;;36.04;41.85
37170;BME280;23062;13.952;100.608;2023-05-07T10:13:30;1000.25;;;36.03;42.04
37170;BME280;23062;13.952;100.608;2023-05-07T10:18:10;1000.18;;;36.05;42.05
37170;BME280;23062;13.952;100.608;2023-05-07T10:22:47;1000.21;;;36.04;42.27
37170;BME280;23062;13.952;100.608;2023-05-07T10:27:17;1000.25;;;36.07;42.32
37170;BME280;23062;13.952;100.608;2023-05-07T10:31:55;1000.26;;;36.03;42.80
37170;BME280;23062;13.952;100.608;2023-05-07T10:36:26;1000.27;;;36.02;43.02
37170;BME280;23062;13.952;100.608;2023-05-07T10:40:51;1000.28;;;35.99;43.08
37170;BME280;23062;13.952;100.608;2023-05-07T10:45:21;1000.33;;;36.03;43.00
37170;BME280;23062;13.952;100.608;2023-05-07T10:54:23;1000.44;;;36.05;43.18
37170;BME280;23062;13.952;100.608;2023-05-07T10:58:50;1000.47;;;36.04;43.27
37170;BME280;23062;13.952;100.608;2023-05-07T11:03:20;1000.50;;;36.04;43.38
37170;BME280;23062;13.952;100.608;2023-05-07T11:07:57;1000.53;;;36.00;43.49
37170;BME280;23062;13.952;100.608;2023-05-07T11:17:17;1000.66;;;36.00;43.30
37170;BME280;23062;13.952;100.608;2023-05-07T11:21:49;1000.67;;;36.00;43.37
37170;BME280;23062;13.952;100.608;2023-05-07T11:26:13;1000.68;;;35.99;43.10
37170;BME280;23062;13.952;100.608;2023-05-07T11:35:14;1000.65;;;36.00;43.24
37170;BME280;23062;13.952;100.608;2023-05-07T11:39:43;1000.62;;;36.00;43.32
37170;BME280;23062;13.952;100.608;2023-05-07T11:44:12;1000.68;;;36.01;43.46
37170;BME280;23062;13.952;100.608;2023-05-07T11:48:45;1000.77;;;36.00;43.24
37170;BME280;23062;13.952;100.608;2023-05-07T11:53:11;1000.88;;;36.01;43.54
37170;BME280;23062;13.952;100.608;2023-05-07T11:57:39;1000.91;;;36.02;43.82
37170;BME280;23062;13.952;100.608;2023-05-07T12:02:09;1001.02;;;36.01;44.19
37170;BME280;23062;13.952;100.608;2023-05-07T12:06:36;1001.03;;;35.99;44.17
37170;BME280;23062;13.952;100.608;2023-05-07T12:11:13;1001.11;;;36.00;44.27
37170;BME280;23062;13.952;100.608;2023-05-07T12:15:43;1001.15;;;35.99;44.52
37170;BME280;23062;13.952;100.608;2023-05-07T12:20:07;1001.24;;;35.96;44.46
37170;BME280;23062;13.952;100.608;2023-05-07T12:24:59;1001.39;;;35.93;44.45
37170;BME280;23062;13.952;100.608;2023-05-07T12:29:26;1001.46;;;35.94;44.49
37170;BME280;23062;13.952;100.608;2023-05-07T12:33:55;1001.52;;;35.89;44.61
37170;BME280;23062;13.952;100.608;2023-05-07T12:38:32;1001.56;;;35.91;44.74
37170;BME280;23062;13.952;100.608;2023-05-07T12:42:58;1001.56;;;35.91;44.66
37170;BME280;23062;13.952;100.608;2023-05-07T12:47:24;1001.71;;;35.86;44.86
37170;BME280;23062;13.952;100.608;2023-05-07T12:52:05;1001.90;;;35.86;44.96
37170;BME280;23062;13.952;100.608;2023-05-07T12:56:31;1001.92;;;35.85;44.73
37170;BME280;23062;13.952;100.608;2023-05-07T13:00:59;1002.00;;;35.83;44.77
37170;BME280;23062;13.952;100.608;2023-05-07T13:05:24;1002.05;;;35.84;44.69
37170;BME280;23062;13.952;100.608;2023-05-07T13:09:53;1002.19;;;35.77;44.98
37170;BME280;23062;13.952;100.608;2023-05-07T13:14:19;1002.26;;;35.77;44.97
37170;BME280;23062;13.952;100.608;2023-05-07T13:18:45;1002.36;;;35.77;44.99
37170;BME280;23062;13.952;100.608;2023-05-07T13:23:10;1002.51;;;35.76;45.02
37170;BME280;23062;13.952;100.608;2023-05-07T13:27:37;1002.53;;;35.76;45.22
37170;BME280;23062;13.952;100.608;2023-05-07T13:32:02;1002.59;;;35.72;45.66
37170;BME280;23062;13.952;100.608;2023-05-07T13:41:08;1002.70;;;35.74;45.97
37170;BME280;23062;13.952;100.608;2023-05-07T13:45:31;1002.74;;;35.73;46.27
37170;BME280;23062;13.952;100.608;2023-05-07T13:49:59;1002.72;;;35.70;47.20
37170;BME280;23062;13.952;100.608;2023-05-07T13:54:32;1002.75;;;35.67;48.12
37170;BME280;23062;13.952;100.608;2023-05-07T13:58:59;1002.73;;;35.65;48.59
37170;BME280;23062;13.952;100.608;2023-05-07T14:03:34;1002.83;;;35.65;48.82
37170;BME280;23062;13.952;100.608;2023-05-07T14:08:01;1002.87;;;35.67;48.67
37170;BME280;23062;13.952;100.608;2023-05-07T14:12:36;1002.99;;;35.68;48.84
37170;BME280;23062;13.952;100.608;2023-05-07T14:17:02;1003.04;;;35.69;48.82
37170;BME280;23062;13.952;100.608;2023-05-07T14:21:35;1003.07;;;35.69;48.80
37170;BME280;23062;13.952;100.608;2023-05-07T14:26:04;1003.17;;;35.70;48.88
37170;BME280;23062;13.952;100.608;2023-05-07T14:30:30;1003.28;;;35.70;48.92
37170;BME280;23062;13.952;100.608;2023-05-07T14:35:00;1003.38;;;35.71;49.25
37170;BME280;23062;13.952;100.608;2023-05-07T14:39:27;1003.45;;;35.86;48.52
37170;BME280;23062;13.952;100.608;2023-05-07T14:43:53;1003.46;;;35.91;48.29
37170;BME280;23062;13.952;100.608;2023-05-07T14:48:20;1003.44;;;35.89;48.57
37170;BME280;23062;13.952;100.608;2023-05-07T14:52:51;1003.52;;;35.88;48.79
37170;BME280;23062;13.952;100.608;2023-05-07T14:57:21;1003.68;;;35.88;48.95
37170;BME280;23062;13.952;100.608;2023-05-07T15:01:51;1003.68;;;35.90;49.53
37170;BME280;23062;13.952;100.608;2023-05-07T15:06:22;1003.73;;;35.85;49.63
37170;BME280;23062;13.952;100.608;2023-05-07T15:10:53;1003.85;;;35.90;50.18
37170;BME280;23062;13.952;100.608;2023-05-07T15:15:28;1003.83;;;35.87;50.51
37170;BME280;23062;13.952;100.608;2023-05-07T15:19:52;1003.93;;;35.87;50.60
37170;BME280;23062;13.952;100.608;2023-05-07T15:24:22;1003.99;;;35.87;50.91
37170;BME280;23062;13.952;100.608;2023-05-07T15:28:52;1004.01;;;35.84;50.97
37170;BME280;23062;13.952;100.608;2023-05-07T15:33:21;1004.01;;;35.88;51.15
37170;BME280;23062;13.952;100.608;2023-05-07T15:42:19;1004.07;;;35.83;51.88
37170;BME280;23062;13.952;100.608;2023-05-07T15:46:48;1003.99;;;35.81;51.71
37170;BME280;23062;13.952;100.608;2023-05-07T15:51:15;1003.95;;;35.82;52.00
37170;BME280;23062;13.952;100.608;2023-05-07T15:55:46;1003.97;;;35.78;52.34
37170;BME280;23062;13.952;100.608;2023-05-07T16:00:11;1003.98;;;35.77;52.35
37170;BME280;23062;13.952;100.608;2023-05-07T16:04:42;1003.99;;;35.78;52.44
37170;BME280;23062;13.952;100.608;2023-05-07T16:09:15;1004.01;;;35.75;52.45
37170;BME280;23062;13.952;100.608;2023-05-07T16:13:41;1004.01;;;35.75;52.53
37170;BME280;23062;13.952;100.608;2023-05-07T16:18:10;1004.11;;;35.74;52.82
37170;BME280;23062;13.952;100.608;2023-05-07T16:22:43;1004.01;;;35.76;52.66
37170;BME280;23062;13.952;100.608;2023-05-07T16:27:10;1003.96;;;35.77;52.60
37170;BME280;23062;13.952;100.608;2023-05-07T16:31:36;1003.94;;;35.73;52.72
37170;BME280;23062;13.952;100.608;2023-05-07T16:36:02;1003.98;;;35.72;52.77
37170;BME280;23062;13.952;100.608;2023-05-07T16:40:30;1003.97;;;35.70;52.89
37170;BME280;23062;13.952;100.608;2023-05-07T16:44:57;1003.96;;;35.67;53.07
37170;BME280;23062;13.952;100.608;2023-05-07T16:49:22;1003.91;;;35.67;52.93
37170;BME280;23062;13.952;100.608;2023-05-07T16:53:48;1003.94;;;35.64;52.87
37170;BME280;23062;13.952;100.608;2023-05-07T16:58:18;1003.83;;;35.65;52.75
37170;BME280;23062;13.952;100.608;2023-05-07T17:02:47;1003.82;;;35.62;52.77
37170;BME280;23062;13.952;100.608;2023-05-07T17:07:15;1003.88;;;35.61;52.77
37170;BME280;23062;13.952;100.608;2023-05-07T17:11:42;1003.93;;;35.61;52.60
37170;BME280;23062;13.952;100.608;2023-05-07T17:16:10;1003.84;;;35.57;52.52
37170;BME280;23062;13.952;100.608;2023-05-07T17:20:38;1003.73;;;35.57;52.57
37170;BME280;23062;13.952;100.608;2023-05-07T17:25:16;1003.56;;;35.57;52.70
37170;BME280;23062;13.952;100.608;2023-05-07T17:29:39;1003.47;;;35.56;52.82
37170;BME280;23062;13.952;100.608;2023-05-07T17:34:05;1003.47;;;35.54;52.85
37170;BME280;23062;13.952;100.608;2023-05-07T17:43:02;1003.38;;;35.49;53.03
37170;BME280;23062;13.952;100.608;2023-05-07T17:47:29;1003.36;;;35.48;53.09
37170;BME280;23062;13.952;100.608;2023-05-07T17:51:56;1003.34;;;35.47;53.25
37170;BME280;23062;13.952;100.608;2023-05-07T17:56:22;1003.28;;;35.47;53.24
37170;BME280;23062;13.952;100.608;2023-05-07T18:00:56;1003.26;;;35.44;53.35
37170;BME280;23062;13.952;100.608;2023-05-07T18:05:20;1003.28;;;35.43;53.41
37170;BME280;23062;13.952;100.608;2023-05-07T18:09:52;1003.23;;;35.44;53.19
37170;BME280;23062;13.952;100.608;2023-05-07T18:14:19;1003.18;;;35.42;53.17
37170;BME280;23062;13.952;100.608;2023-05-07T18:18:47;1003.06;;;35.41;53.24
37170;BME280;23062;13.952;100.608;2023-05-07T18:23:21;1003.13;;;35.42;53.29
37170;BME280;23062;13.952;100.608;2023-05-07T18:27:57;1003.15;;;35.42;53.40
37170;BME280;23062;13.952;100.608;2023-05-07T18:32:20;1003.05;;;35.41;53.49
37170;BME280;23062;13.952;100.608;2023-05-07T18:36:46;1003.02;;;35.40;53.62
37170;BME280;23062;13.952;100.608;2023-05-07T18:45:51;1003.01;;;35.38;53.85
37170;BME280;23062;13.952;100.608;2023-05-07T18:50:22;1002.91;;;35.37;53.90
37170;BME280;23062;13.952;100.608;2023-05-07T18:54:49;1002.90;;;35.33;54.19
37170;BME280;23062;13.952;100.608;2023-05-07T18:59:17;1002.95;;;35.34;54.29
37170;BME280;23062;13.952;100.608;2023-05-07T19:03:43;1002.88;;;35.32;54.47
37170;BME280;23062;13.952;100.608;2023-05-07T19:08:09;1002.70;;;35.32;54.52
37170;BME280;23062;13.952;100.608;2023-05-07T19:12:35;1002.70;;;35.31;54.65
37170;BME280;23062;13.952;100.608;2023-05-07T19:17:02;1002.66;;;35.30;54.77
37170;BME280;23062;13.952;100.608;2023-05-07T19:21:28;1002.68;;;35.31;54.73
37170;BME280;23062;13.952;100.608;2023-05-07T19:26:02;1002.62;;;35.29;54.91
37170;BME280;23062;13.952;100.608;2023-05-07T19:30:32;1002.67;;;35.27;55.07
37170;BME280;23062;13.952;100.608;2023-05-07T19:35:03;1002.72;;;35.29;55.10
37170;BME280;23062;13.952;100.608;2023-05-07T19:39:30;1002.76;;;35.29;55.10
37170;BME280;23062;13.952;100.608;2023-05-07T19:43:55;1002.68;;;35.28;55.34
37170;BME280;23062;13.952;100.608;2023-05-07T19:48:21;1002.70;;;35.27;55.38
37170;BME280;23062;13.952;100.608;2023-05-07T19:52:47;1002.64;;;35.28;55.40
37170;BME280;23062;13.952;100.608;2023-05-07T19:57:13;1002.71;;;35.28;55.56
37170;BME280;23062;13.952;100.608;2023-05-07T20:01:41;1002.65;;;35.27;55.52
37170;BME280;23062;13.952;100.608;2023-05-07T20:06:20;1002.61;;;35.27;55.67
37170;BME280;23062;13.952;100.608;2023-05-07T20:15:15;1002.64;;;35.24;55.88
37170;BME280;23062;13.952;100.608;2023-05-07T20:19:44;1002.71;;;35.24;56.21
37170;BME280;23062;13.952;100.608;2023-05-07T20:28:43;1002.89;;;35.22;56.31
37170;BME280;23062;13.952;100.608;2023-05-07T20:33:10;1002.86;;;35.20;56.35
37170;BME280;23062;13.952;100.608;2023-05-07T20:37:37;1002.87;;;35.19;56.56
37170;BME280;23062;13.952;100.608;2023-05-07T20:42:05;1002.85;;;35.04;56.88
37170;BME280;23062;13.952;100.608;2023-05-07T20:46:34;1002.83;;;35.02;57.30
37170;BME280;23062;13.952;100.608;2023-05-07T20:51:05;1002.85;;;35.00;57.36
37170;BME280;23062;13.952;100.608;2023-05-07T21:04:40;1003.03;;;34.95;58.56
37170;BME280;23062;13.952;100.608;2023-05-07T21:09:16;1003.02;;;34.94;58.79
37170;BME280;23062;13.952;100.608;2023-05-07T21:13:42;1003.06;;;34.82;59.60
37170;BME280;23062;13.952;100.608;2023-05-07T21:18:08;1003.10;;;34.79;59.89
37170;BME280;23062;13.952;100.608;2023-05-07T21:27:11;1003.18;;;34.64;60.65
37170;BME280;23062;13.952;100.608;2023-05-07T21:31:50;1003.31;;;34.58;60.95
37170;BME280;23062;13.952;100.608;2023-05-07T21:36:14;1003.41;;;34.54;61.23
37170;BME280;23062;13.952;100.608;2023-05-07T21:40:49;1003.45;;;34.55;60.90
37170;BME280;23062;13.952;100.608;2023-05-07T21:45:10;1003.55;;;34.53;61.16
37170;BME280;23062;13.952;100.608;2023-05-07T21:49:45;1003.65;;;34.50;61.39
37170;BME280;23062;13.952;100.608;2023-05-07T21:54:19;1003.71;;;34.49;61.58
37170;BME280;23062;13.952;100.608;2023-05-07T22:03:19;1003.86;;;34.45;61.83
37170;BME280;23062;13.952;100.608;2023-05-07T22:07:49;1004.00;;;34.45;61.98
37170;BME280;23062;13.952;100.608;2023-05-07T22:12:14;1004.06;;;34.42;62.08
37170;BME280;23062;13.952;100.608;2023-05-07T22:16:43;1004.01;;;34.40;62.25
37170;BME280;23062;13.952;100.608;2023-05-07T22:21:09;1004.02;;;34.41;62.21
37170;BME280;23062;13.952;100.608;2023-05-07T22:25:35;1004.14;;;34.39;62.52
37170;BME280;23062;13.952;100.608;2023-05-07T22:30:01;1004.14;;;34.37;62.89
37170;BME280;23062;13.952;100.608;2023-05-07T22:34:26;1004.12;;;34.38;62.72
37170;BME280;23062;13.952;100.608;2023-05-07T22:38:56;1004.14;;;34.37;62.70
37170;BME280;23062;13.952;100.608;2023-05-07T22:43:21;1004.16;;;34.33;63.18
37170;BME280;23062;13.952;100.608;2023-05-07T22:47:49;1004.23;;;34.30;63.41
37170;BME280;23062;13.952;100.608;2023-05-07T22:52:15;1004.23;;;34.26;63.62
37170;BME280;23062;13.952;100.608;2023-05-07T22:56:42;1004.27;;;34.28;63.66
37170;BME280;23062;13.952;100.608;2023-05-07T23:01:16;1004.36;;;34.25;64.08
37170;BME280;23062;13.952;100.608;2023-05-07T23:05:42;1004.31;;;34.23;64.20
37170;BME280;23062;13.952;100.608;2023-05-07T23:10:08;1004.36;;;34.26;64.19
37170;BME280;23062;13.952;100.608;2023-05-07T23:14:33;1004.42;;;34.22;64.36
37170;BME280;23062;13.952;100.608;2023-05-07T23:18:59;1004.41;;;34.22;64.65
37170;BME280;23062;13.952;100.608;2023-05-07T23:23:25;1004.44;;;34.26;64.48
37170;BME280;23062;13.952;100.608;2023-05-07T23:27:52;1004.47;;;34.21;64.67
37170;BME280;23062;13.952;100.608;2023-05-07T23:32:18;1004.47;;;34.20;64.83
37170;BME280;23062;13.952;100.608;2023-05-07T23:36:44;1004.51;;;34.19;64.94
37170;BME280;23062;13.952;100.608;2023-05-07T23:41:13;1004.58;;;34.15;65.07
37170;BME280;23062;13.952;100.608;2023-05-07T23:45:39;1004.64;;;34.19;65.04
37170;BME280;23062;13.952;100.608;2023-05-07T23:50:05;1004.70;;;34.21;65.05
37170;BME280;23062;13.952;100.608;2023-05-07T23:54:31;1004.71;;;34.21;64.82
37170;BME280;23062;13.952;100.608;2023-05-07T23:58:56;1004.69;;;34.19;65.07
